sensor_id;sensor_type;location;lat;lon;timestamp;P1;durP1;ratioP1;P2;durP2;ratioP2
19643;SDS011;9970;-36.854;174.870;2023-04-03T00:00:59;2.17;;;2.17;;
19643;SDS011;9970;-36.854;174.870;2023-04-03T00:03:33;2.07;;;2.07;;
19643;SDS011;9970;-36.854;174.870;2023-04-03T00:06:06;2.50;;;2.50;;
19643;SDS011;9970;-36.854;174.870;2023-04-03T00:08:40;2.20;;;2.20;;
19643;SDS011;9970;-36.854;174.870;2023-04-03T00:11:13;2.20;;;2.20;;
19643;SDS011;9970;-36.854;174.870;2023-04-03T00:13:46;2.20;;;2.20;;
19643;SDS011;9970;-36.854;174.870;2023-04-03T00:16:19;2.30;;;2.30;;
19643;SDS011;9970;-36.854;174.870;2023-04-03T00:18:52;2.30;;;2.30;;
19643;SDS011;9970;-36.854;174.870;2023-04-03T00:21:25;2.13;;;2.13;;
19643;SDS011;9970;-36.854;174.870;2023-04-03T00:23:58;2.10;;;2.10;;
19643;SDS011;9970;-36.854;174.870;2023-04-03T00:26:31;2.20;;;2.20;;
19643;SDS011;9970;-36.854;174.870;2023-04-03T00:29:09;2.00;;;2.00;;
19643;SDS011;9970;-36.854;174.870;2023-04-03T00:31:42;2.00;;;2.00;;
19643;SDS011;9970;-36.854;174.870;2023-04-03T00:34:15;1.90;;;1.90;;
19643;SDS011;9970;-36.854;174.870;2023-04-03T00:36:49;1.97;;;1.97;;
19643;SDS011;9970;-36.854;174.870;2023-04-03T00:39:22;1.90;;;1.90;;
19643;SDS011;9970;-36.854;174.870;2023-04-03T00:41:55;1.90;;;1.90;;
19643;SDS011;9970;-36.854;174.870;2023-04-03T00:47:07;2.00;;;2.00;;
19643;SDS011;9970;-36.854;174.870;2023-04-03T00:49:41;2.10;;;2.10;;
19643;SDS011;9970;-36.854;174.870;2023-04-03T00:52:16;2.00;;;2.00;;
19643;SDS011;9970;-36.854;174.870;2023-04-03T00:54:57;2.10;;;2.10;;
19643;SDS011;9970;-36.854;174.870;2023-04-03T00:57:30;2.30;;;2.30;;
19643;SDS011;9970;-36.854;174.870;2023-04-03T01:00:08;2.40;;;2.40;;
19643;SDS011;9970;-36.854;174.870;2023-04-03T01:02:44;2.20;;;2.20;;
19643;SDS011;9970;-36.854;174.870;2023-04-03T01:05:21;2.10;;;2.10;;
19643;SDS011;9970;-36.854;174.870;2023-04-03T01:07:54;2.20;;;2.20;;
19643;SDS011;9970;-36.854;174.870;2023-04-03T01:10:28;2.20;;;2.20;;
19643;SDS011;9970;-36.854;174.870;2023-04-03T01:13:02;2.10;;;2.10;;
19643;SDS011;9970;-36.854;174.870;2023-04-03T01:15:37;2.03;;;2.03;;
19643;SDS011;9970;-36.854;174.870;2023-04-03T01:18:09;1.90;;;1.90;;
19643;SDS011;9970;-36.854;174.870;2023-04-03T01:23:25;1.90;;;1.90;;
19643;SDS011;9970;-36.854;174.870;2023-04-03T01:26:10;1.70;;;1.70;;
19643;SDS011;9970;-36.854;174.870;2023-04-03T01:28:44;1.80;;;1.80;;
19643;SDS011;9970;-36.854;174.870;2023-04-03T01:31:25;1.90;;;1.90;;
19643;SDS011;9970;-36.854;174.870;2023-04-03T01:34:04;1.90;;;1.90;;
19643;SDS011;9970;-36.854;174.870;2023-04-03T01:36:37;1.90;;;1.90;;
19643;SDS011;9970;-36.854;174.870;2023-04-03T01:39:11;1.90;;;1.90;;
19643;SDS011;9970;-36.854;174.870;2023-04-03T01:41:45;1.90;;;1.90;;
19643;SDS011;9970;-36.854;174.870;2023-04-03T01:44:18;1.90;;;1.90;;
19643;SDS011;9970;-36.854;174.870;2023-04-03T01:46:52;2.00;;;2.00;;
19643;SDS011;9970;-36.854;174.870;2023-04-03T01:49:24;1.90;;;1.90;;
19643;SDS011;9970;-36.854;174.870;2023-04-03T01:51:58;1.80;;;1.80;;
19643;SDS011;9970;-36.854;174.870;2023-04-03T01:54:30;1.80;;;1.80;;
19643;SDS011;9970;-36.854;174.870;2023-04-03T01:57:04;1.80;;;1.80;;
19643;SDS011;9970;-36.854;174.870;2023-04-03T01:59:37;1.90;;;1.90;;
19643;SDS011;9970;-36.854;174.870;2023-04-03T02:02:10;1.80;;;1.80;;
19643;SDS011;9970;-36.854;174.870;2023-04-03T02:04:44;1.90;;;1.90;;
19643;SDS011;9970;-36.854;174.870;2023-04-03T02:07:17;2.00;;;2.00;;
19643;SDS011;9970;-36.854;174.870;2023-04-03T02:09:50;1.90;;;1.90;;
19643;SDS011;9970;-36.854;174.870;2023-04-03T02:12:23;2.00;;;2.00;;
19643;SDS011;9970;-36.854;174.870;2023-04-03T02:14:57;2.10;;;2.10;;
19643;SDS011;9970;-36.854;174.870;2023-04-03T02:17:34;2.00;;;2.00;;
19643;SDS011;9970;-36.854;174.870;2023-04-03T02:20:08;1.80;;;1.80;;
19643;SDS011;9970;-36.854;174.870;2023-04-03T02:22:41;1.90;;;1.90;;
19643;SDS011;9970;-36.854;174.870;2023-04-03T02:25:14;1.87;;;1.87;;
19643;SDS011;9970;-36.854;174.870;2023-04-03T02:27:47;1.80;;;1.80;;
19643;SDS011;9970;-36.854;174.870;2023-04-03T02:30:20;1.80;;;1.80;;
19643;SDS011;9970;-36.854;174.870;2023-04-03T02:32:53;1.83;;;1.83;;
19643;SDS011;9970;-36.854;174.870;2023-04-03T02:35:26;1.80;;;1.80;;
19643;SDS011;9970;-36.854;174.870;2023-04-03T02:37:59;1.80;;;1.80;;
19643;SDS011;9970;-36.854;174.870;2023-04-03T02:40:32;1.70;;;1.70;;
19643;SDS011;9970;-36.854;174.870;2023-04-03T02:43:06;1.70;;;1.70;;
19643;SDS011;9970;-36.854;174.870;2023-04-03T02:45:39;1.70;;;1.70;;
19643;SDS011;9970;-36.854;174.870;2023-04-03T02:48:12;1.70;;;1.70;;
19643;SDS011;9970;-36.854;174.870;2023-04-03T02:50:46;1.70;;;1.70;;
19643;SDS011;9970;-36.854;174.870;2023-04-03T02:53:19;1.70;;;1.70;;
19643;SDS011;9970;-36.854;174.870;2023-04-03T02:55:52;1.60;;;1.60;;
19643;SDS011;9970;-36.854;174.870;2023-04-03T02:58:25;1.77;;;1.77;;
19643;SDS011;9970;-36.854;174.870;2023-04-03T03:00:58;1.80;;;1.80;;
19643;SDS011;9970;-36.854;174.870;2023-04-03T03:03:31;1.70;;;1.70;;
19643;SDS011;9970;-36.854;174.870;2023-04-03T03:06:04;1.70;;;1.70;;
19643;SDS011;9970;-36.854;174.870;2023-04-03T03:08:39;1.60;;;1.60;;
19643;SDS011;9970;-36.854;174.870;2023-04-03T03:11:12;1.67;;;1.67;;
19643;SDS011;9970;-36.854;174.870;2023-04-03T03:13:45;1.60;;;1.60;;
19643;SDS011;9970;-36.854;174.870;2023-04-03T03:16:18;1.70;;;1.70;;
19643;SDS011;9970;-36.854;174.870;2023-04-03T03:18:51;1.70;;;1.70;;
19643;SDS011;9970;-36.854;174.870;2023-04-03T03:21:25;1.70;;;1.70;;
19643;SDS011;9970;-36.854;174.870;2023-04-03T03:23:59;1.80;;;1.80;;
19643;SDS011;9970;-36.854;174.870;2023-04-03T03:26:32;1.70;;;1.70;;
19643;SDS011;9970;-36.854;174.870;2023-04-03T03:29:05;1.80;;;1.80;;
19643;SDS011;9970;-36.854;174.870;2023-04-03T03:31:38;1.70;;;1.70;;
19643;SDS011;9970;-36.854;174.870;2023-04-03T03:34:11;1.70;;;1.70;;
19643;SDS011;9970;-36.854;174.870;2023-04-03T03:36:44;1.80;;;1.80;;
19643;SDS011;9970;-36.854;174.870;2023-04-03T03:39:18;1.80;;;1.80;;
19643;SDS011;9970;-36.854;174.870;2023-04-03T03:41:51;1.80;;;1.80;;
19643;SDS011;9970;-36.854;174.870;2023-04-03T03:44:24;1.70;;;1.70;;
19643;SDS011;9970;-36.854;174.870;2023-04-03T03:46:58;1.73;;;1.73;;
19643;SDS011;9970;-36.854;174.870;2023-04-03T03:49:32;1.73;;;1.73;;
19643;SDS011;9970;-36.854;174.870;2023-04-03T03:52:05;1.73;;;1.73;;
19643;SDS011;9970;-36.854;174.870;2023-04-03T03:54:39;1.70;;;1.70;;
19643;SDS011;9970;-36.854;174.870;2023-04-03T03:57:12;1.80;;;1.80;;
19643;SDS011;9970;-36.854;174.870;2023-04-03T03:59:45;1.60;;;1.60;;
19643;SDS011;9970;-36.854;174.870;2023-04-03T04:02:22;1.70;;;1.70;;
19643;SDS011;9970;-36.854;174.870;2023-04-03T04:04:55;1.80;;;1.80;;
19643;SDS011;9970;-36.854;174.870;2023-04-03T04:07:28;1.80;;;1.80;;
19643;SDS011;9970;-36.854;174.870;2023-04-03T04:10:01;1.80;;;1.80;;
19643;SDS011;9970;-36.854;174.870;2023-04-03T04:12:35;1.70;;;1.70;;
19643;SDS011;9970;-36.854;174.870;2023-04-03T04:15:08;1.80;;;1.80;;
19643;SDS011;9970;-36.854;174.870;2023-04-03T04:17:42;1.70;;;1.70;;
19643;SDS011;9970;-36.854;174.870;2023-04-03T04:20:16;1.60;;;1.60;;
19643;SDS011;9970;-36.854;174.870;2023-04-03T04:22:50;1.70;;;1.70;;
19643;SDS011;9970;-36.854;174.870;2023-04-03T04:25:23;1.60;;;1.60;;
19643;SDS011;9970;-36.854;174.870;2023-04-03T04:27:55;1.50;;;1.50;;
19643;SDS011;9970;-36.854;174.870;2023-04-03T04:30:29;1.60;;;1.60;;
19643;SDS011;9970;-36.854;174.870;2023-04-03T04:33:02;1.50;;;1.50;;
19643;SDS011;9970;-36.854;174.870;2023-04-03T04:35:35;1.53;;;1.53;;
19643;SDS011;9970;-36.854;174.870;2023-04-03T04:38:08;1.67;;;1.67;;
19643;SDS011;9970;-36.854;174.870;2023-04-03T04:40:41;1.50;;;1.50;;
19643;SDS011;9970;-36.854;174.870;2023-04-03T04:43:14;1.60;;;1.60;;
19643;SDS011;9970;-36.854;174.870;2023-04-03T04:45:47;1.70;;;1.70;;
19643;SDS011;9970;-36.854;174.870;2023-04-03T04:48:22;1.60;;;1.60;;
19643;SDS011;9970;-36.854;174.870;2023-04-03T04:50:57;1.60;;;1.60;;
19643;SDS011;9970;-36.854;174.870;2023-04-03T04:53:30;1.60;;;1.60;;
19643;SDS011;9970;-36.854;174.870;2023-04-03T04:56:03;1.60;;;1.60;;
19643;SDS011;9970;-36.854;174.870;2023-04-03T04:58:37;1.50;;;1.50;;
19643;SDS011;9970;-36.854;174.870;2023-04-03T05:01:10;1.50;;;1.50;;
19643;SDS011;9970;-36.854;174.870;2023-04-03T05:03:44;1.50;;;1.50;;
19643;SDS011;9970;-36.854;174.870;2023-04-03T05:06:17;1.50;;;1.50;;
19643;SDS011;9970;-36.854;174.870;2023-04-03T05:08:50;1.43;;;1.43;;
19643;SDS011;9970;-36.854;174.870;2023-04-03T05:11:23;1.50;;;1.50;;
19643;SDS011;9970;-36.854;174.870;2023-04-03T05:13:56;1.50;;;1.50;;
19643;SDS011;9970;-36.854;174.870;2023-04-03T05:16:29;1.50;;;1.50;;
19643;SDS011;9970;-36.854;174.870;2023-04-03T05:19:02;1.60;;;1.60;;
19643;SDS011;9970;-36.854;174.870;2023-04-03T05:21:35;1.60;;;1.60;;
19643;SDS011;9970;-36.854;174.870;2023-04-03T05:24:08;1.70;;;1.70;;
19643;SDS011;9970;-36.854;174.870;2023-04-03T05:26:41;1.60;;;1.60;;
19643;SDS011;9970;-36.854;174.870;2023-04-03T05:29:14;1.60;;;1.60;;
19643;SDS011;9970;-36.854;174.870;2023-04-03T05:31:48;1.70;;;1.70;;
19643;SDS011;9970;-36.854;174.870;2023-04-03T05:34:21;1.63;;;1.63;;
19643;SDS011;9970;-36.854;174.870;2023-04-03T05:36:54;1.50;;;1.50;;
19643;SDS011;9970;-36.854;174.870;2023-04-03T05:39:27;1.60;;;1.60;;
19643;SDS011;9970;-36.854;174.870;2023-04-03T05:42:04;1.60;;;1.60;;
19643;SDS011;9970;-36.854;174.870;2023-04-03T05:44:37;1.60;;;1.60;;
19643;SDS011;9970;-36.854;174.870;2023-04-03T05:47:10;1.63;;;1.63;;
19643;SDS011;9970;-36.854;174.870;2023-04-03T05:49:44;1.70;;;1.70;;
19643;SDS011;9970;-36.854;174.870;2023-04-03T05:52:21;1.80;;;1.80;;
19643;SDS011;9970;-36.854;174.870;2023-04-03T05:55:01;1.70;;;1.70;;
19643;SDS011;9970;-36.854;174.870;2023-04-03T05:57:34;1.80;;;1.80;;
19643;SDS011;9970;-36.854;174.870;2023-04-03T06:00:08;1.90;;;1.90;;
19643;SDS011;9970;-36.854;174.870;2023-04-03T06:02:42;1.60;;;1.60;;
19643;SDS011;9970;-36.854;174.870;2023-04-03T06:05:15;1.57;;;1.57;;
19643;SDS011;9970;-36.854;174.870;2023-04-03T06:07:48;1.60;;;1.60;;
19643;SDS011;9970;-36.854;174.870;2023-04-03T06:10:21;1.50;;;1.50;;
19643;SDS011;9970;-36.854;174.870;2023-04-03T06:12:54;1.60;;;1.60;;
19643;SDS011;9970;-36.854;174.870;2023-04-03T06:15:28;1.60;;;1.60;;
19643;SDS011;9970;-36.854;174.870;2023-04-03T06:18:00;1.60;;;1.60;;
19643;SDS011;9970;-36.854;174.870;2023-04-03T06:20:33;1.60;;;1.60;;
19643;SDS011;9970;-36.854;174.870;2023-04-03T06:23:07;1.60;;;1.60;;
19643;SDS011;9970;-36.854;174.870;2023-04-03T06:25:40;1.50;;;1.50;;
19643;SDS011;9970;-36.854;174.870;2023-04-03T06:28:13;1.43;;;1.43;;
19643;SDS011;9970;-36.854;174.870;2023-04-03T06:30:46;1.50;;;1.50;;
19643;SDS011;9970;-36.854;174.870;2023-04-03T06:33:19;1.50;;;1.50;;
19643;SDS011;9970;-36.854;174.870;2023-04-03T06:35:55;1.40;;;1.40;;
19643;SDS011;9970;-36.854;174.870;2023-04-03T06:38:33;1.50;;;1.50;;
19643;SDS011;9970;-36.854;174.870;2023-04-03T06:41:06;1.40;;;1.40;;
19643;SDS011;9970;-36.854;174.870;2023-04-03T06:43:39;1.40;;;1.40;;
19643;SDS011;9970;-36.854;174.870;2023-04-03T06:46:15;1.40;;;1.40;;
19643;SDS011;9970;-36.854;174.870;2023-04-03T06:48:49;1.40;;;1.40;;
19643;SDS011;9970;-36.854;174.870;2023-04-03T06:51:24;1.37;;;1.37;;
19643;SDS011;9970;-36.854;174.870;2023-04-03T06:53:58;1.40;;;1.40;;
19643;SDS011;9970;-36.854;174.870;2023-04-03T06:56:32;1.40;;;1.40;;
19643;SDS011;9970;-36.854;174.870;2023-04-03T06:59:05;1.40;;;1.40;;
19643;SDS011;9970;-36.854;174.870;2023-04-03T07:01:38;1.30;;;1.30;;
19643;SDS011;9970;-36.854;174.870;2023-04-03T07:04:11;1.50;;;1.50;;
19643;SDS011;9970;-36.854;174.870;2023-04-03T07:06:44;1.40;;;1.40;;
19643;SDS011;9970;-36.854;174.870;2023-04-03T07:09:17;1.60;;;1.60;;
19643;SDS011;9970;-36.854;174.870;2023-04-03T07:11:50;1.50;;;1.50;;
19643;SDS011;9970;-36.854;174.870;2023-04-03T07:14:24;1.50;;;1.50;;
19643;SDS011;9970;-36.854;174.870;2023-04-03T07:16:57;1.50;;;1.50;;
19643;SDS011;9970;-36.854;174.870;2023-04-03T07:19:30;1.50;;;1.50;;
19643;SDS011;9970;-36.854;174.870;2023-04-03T07:22:03;1.53;;;1.53;;
19643;SDS011;9970;-36.854;174.870;2023-04-03T07:24:36;1.50;;;1.50;;
19643;SDS011;9970;-36.854;174.870;2023-04-03T07:27:09;1.60;;;1.60;;
19643;SDS011;9970;-36.854;174.870;2023-04-03T07:29:42;1.50;;;1.50;;
19643;SDS011;9970;-36.854;174.870;2023-04-03T07:32:16;1.60;;;1.60;;
19643;SDS011;9970;-36.854;174.870;2023-04-03T07:34:49;1.50;;;1.50;;
19643;SDS011;9970;-36.854;174.870;2023-04-03T07:37:23;1.40;;;1.40;;
19643;SDS011;9970;-36.854;174.870;2023-04-03T07:39:56;1.50;;;1.50;;
19643;SDS011;9970;-36.854;174.870;2023-04-03T07:42:29;1.50;;;1.50;;
19643;SDS011;9970;-36.854;174.870;2023-04-03T07:45:02;1.50;;;1.50;;
19643;SDS011;9970;-36.854;174.870;2023-04-03T07:47:36;1.60;;;1.60;;
19643;SDS011;9970;-36.854;174.870;2023-04-03T07:50:10;1.50;;;1.50;;
19643;SDS011;9970;-36.854;174.870;2023-04-03T07:52:44;1.50;;;1.50;;
19643;SDS011;9970;-36.854;174.870;2023-04-03T07:55:17;1.60;;;1.60;;
19643;SDS011;9970;-36.854;174.870;2023-04-03T07:57:50;1.60;;;1.60;;
19643;SDS011;9970;-36.854;174.870;2023-04-03T08:00:23;1.60;;;1.60;;
19643;SDS011;9970;-36.854;174.870;2023-04-03T08:02:56;1.70;;;1.70;;
19643;SDS011;9970;-36.854;174.870;2023-04-03T08:05:29;1.60;;;1.60;;
19643;SDS011;9970;-36.854;174.870;2023-04-03T08:08:02;1.60;;;1.60;;
19643;SDS011;9970;-36.854;174.870;2023-04-03T08:10:36;1.60;;;1.60;;
19643;SDS011;9970;-36.854;174.870;2023-04-03T08:13:09;1.50;;;1.50;;
19643;SDS011;9970;-36.854;174.870;2023-04-03T08:15:42;1.50;;;1.50;;
19643;SDS011;9970;-36.854;174.870;2023-04-03T08:18:15;1.60;;;1.60;;
19643;SDS011;9970;-36.854;174.870;2023-04-03T08:20:49;1.60;;;1.60;;
19643;SDS011;9970;-36.854;174.870;2023-04-03T08:23:23;1.50;;;1.50;;
19643;SDS011;9970;-36.854;174.870;2023-04-03T08:25:56;1.60;;;1.60;;
19643;SDS011;9970;-36.854;174.870;2023-04-03T08:28:28;1.60;;;1.60;;
19643;SDS011;9970;-36.854;174.870;2023-04-03T08:31:05;1.70;;;1.70;;
19643;SDS011;9970;-36.854;174.870;2023-04-03T08:33:40;1.70;;;1.70;;
19643;SDS011;9970;-36.854;174.870;2023-04-03T08:36:24;1.60;;;1.60;;
19643;SDS011;9970;-36.854;174.870;2023-04-03T08:38:54;1.80;;;1.80;;
19643;SDS011;9970;-36.854;174.870;2023-04-03T08:41:29;1.80;;;1.80;;
19643;SDS011;9970;-36.854;174.870;2023-04-03T08:49:52;1.80;;;1.80;;
19643;SDS011;9970;-36.854;174.870;2023-04-03T08:52:44;1.80;;;1.80;;
19643;SDS011;9970;-36.854;174.870;2023-04-03T08:58:40;1.70;;;1.70;;
19643;SDS011;9970;-36.854;174.870;2023-04-03T09:00:43;1.50;;;1.50;;
19643;SDS011;9970;-36.854;174.870;2023-04-03T09:03:14;1.60;;;1.60;;
19643;SDS011;9970;-36.854;174.870;2023-04-03T09:08:37;1.60;;;1.60;;
19643;SDS011;9970;-36.854;174.870;2023-04-03T09:11:26;1.67;;;1.67;;
19643;SDS011;9970;-36.854;174.870;2023-04-03T09:14:19;1.50;;;1.50;;
19643;SDS011;9970;-36.854;174.870;2023-04-03T09:17:11;1.60;;;1.60;;
19643;SDS011;9970;-36.854;174.870;2023-04-03T09:22:39;1.63;;;1.63;;
19643;SDS011;9970;-36.854;174.870;2023-04-03T09:25:22;1.77;;;1.77;;
19643;SDS011;9970;-36.854;174.870;2023-04-03T09:28:03;1.67;;;1.67;;
19643;SDS011;9970;-36.854;174.870;2023-04-03T09:30:38;1.70;;;1.70;;
19643;SDS011;9970;-36.854;174.870;2023-04-03T09:33:11;1.70;;;1.70;;
19643;SDS011;9970;-36.854;174.870;2023-04-03T09:35:45;1.70;;;1.70;;
19643;SDS011;9970;-36.854;174.870;2023-04-03T09:38:20;1.60;;;1.60;;
19643;SDS011;9970;-36.854;174.870;2023-04-03T09:41:07;1.70;;;1.70;;
19643;SDS011;9970;-36.854;174.870;2023-04-03T09:43:40;1.70;;;1.70;;
19643;SDS011;9970;-36.854;174.870;2023-04-03T09:46:16;1.60;;;1.60;;
19643;SDS011;9970;-36.854;174.870;2023-04-03T09:49:03;1.70;;;1.70;;
19643;SDS011;9970;-36.854;174.870;2023-04-03T09:51:37;1.70;;;1.70;;
19643;SDS011;9970;-36.854;174.870;2023-04-03T09:54:29;1.60;;;1.60;;
19643;SDS011;9970;-36.854;174.870;2023-04-03T09:57:09;1.70;;;1.70;;
19643;SDS011;9970;-36.854;174.870;2023-04-03T09:59:46;1.60;;;1.60;;
19643;SDS011;9970;-36.854;174.870;2023-04-03T10:02:22;1.60;;;1.60;;
19643;SDS011;9970;-36.854;174.870;2023-04-03T10:04:56;1.70;;;1.70;;
19643;SDS011;9970;-36.854;174.870;2023-04-03T10:07:33;1.70;;;1.70;;
19643;SDS011;9970;-36.854;174.870;2023-04-03T10:10:21;1.70;;;1.70;;
19643;SDS011;9970;-36.854;174.870;2023-04-03T10:13:10;1.60;;;1.60;;
19643;SDS011;9970;-36.854;174.870;2023-04-03T10:15:44;1.60;;;1.60;;
19643;SDS011;9970;-36.854;174.870;2023-04-03T10:18:53;1.60;;;1.60;;
19643;SDS011;9970;-36.854;174.870;2023-04-03T10:21:33;1.60;;;1.60;;
19643;SDS011;9970;-36.854;174.870;2023-04-03T10:38:43;1.90;;;1.90;;
19643;SDS011;9970;-36.854;174.870;2023-04-03T10:44:14;2.10;;;2.10;;
19643;SDS011;9970;-36.854;174.870;2023-04-03T10:47:26;2.20;;;2.20;;
19643;SDS011;9970;-36.854;174.870;2023-04-03T10:49:48;2.30;;;2.30;;
19643;SDS011;9970;-36.854;174.870;2023-04-03T10:53:04;2.00;;;2.00;;
19643;SDS011;9970;-36.854;174.870;2023-04-03T10:57:55;2.10;;;2.10;;
19643;SDS011;9970;-36.854;174.870;2023-04-03T11:00:51;2.10;;;2.10;;
19643;SDS011;9970;-36.854;174.870;2023-04-03T11:03:39;1.97;;;1.97;;
19643;SDS011;9970;-36.854;174.870;2023-04-03T11:05:55;2.00;;;2.00;;
19643;SDS011;9970;-36.854;174.870;2023-04-03T11:11:11;1.90;;;1.90;;
19643;SDS011;9970;-36.854;174.870;2023-04-03T11:13:52;1.90;;;1.90;;
19643;SDS011;9970;-36.854;174.870;2023-04-03T11:16:36;1.80;;;1.80;;
19643;SDS011;9970;-36.854;174.870;2023-04-03T11:19:22;1.90;;;1.90;;
19643;SDS011;9970;-36.854;174.870;2023-04-03T11:21:56;1.80;;;1.80;;
19643;SDS011;9970;-36.854;174.870;2023-04-03T11:24:32;1.90;;;1.90;;
19643;SDS011;9970;-36.854;174.870;2023-04-03T11:27:08;1.97;;;1.97;;
19643;SDS011;9970;-36.854;174.870;2023-04-03T11:29:41;2.00;;;2.00;;
19643;SDS011;9970;-36.854;174.870;2023-04-03T11:32:26;1.80;;;1.80;;
19643;SDS011;9970;-36.854;174.870;2023-04-03T11:35:00;1.90;;;1.90;;
19643;SDS011;9970;-36.854;174.870;2023-04-03T11:37:44;1.70;;;1.70;;
19643;SDS011;9970;-36.854;174.870;2023-04-03T11:43:02;1.90;;;1.90;;
19643;SDS011;9970;-36.854;174.870;2023-04-03T11:45:30;1.90;;;1.90;;
19643;SDS011;9970;-36.854;174.870;2023-04-03T11:51:01;1.80;;;1.80;;
19643;SDS011;9970;-36.854;174.870;2023-04-03T11:53:48;1.80;;;1.80;;
19643;SDS011;9970;-36.854;174.870;2023-04-03T12:01:47;1.80;;;1.80;;
19643;SDS011;9970;-36.854;174.870;2023-04-03T12:04:22;1.70;;;1.70;;
19643;SDS011;9970;-36.854;174.870;2023-04-03T12:07:30;1.90;;;1.90;;
19643;SDS011;9970;-36.854;174.870;2023-04-03T12:12:30;1.90;;;1.90;;
19643;SDS011;9970;-36.854;174.870;2023-04-03T12:15:25;1.70;;;1.70;;
19643;SDS011;9970;-36.854;174.870;2023-04-03T12:17:58;1.90;;;1.90;;
19643;SDS011;9970;-36.854;174.870;2023-04-03T12:23:31;2.00;;;2.00;;
19643;SDS011;9970;-36.854;174.870;2023-04-03T12:26:24;1.80;;;1.80;;
19643;SDS011;9970;-36.854;174.870;2023-04-03T12:29:01;1.90;;;1.90;;
19643;SDS011;9970;-36.854;174.870;2023-04-03T12:31:37;1.90;;;1.90;;
19643;SDS011;9970;-36.854;174.870;2023-04-03T12:40:10;2.00;;;2.00;;
19643;SDS011;9970;-36.854;174.870;2023-04-03T12:46:04;2.10;;;2.10;;
19643;SDS011;9970;-36.854;174.870;2023-04-03T12:48:55;2.00;;;2.00;;
19643;SDS011;9970;-36.854;174.870;2023-04-03T12:57:18;1.90;;;1.90;;
19643;SDS011;9970;-36.854;174.870;2023-04-03T12:59:58;2.00;;;2.00;;
19643;SDS011;9970;-36.854;174.870;2023-04-03T13:02:34;1.93;;;1.93;;
19643;SDS011;9970;-36.854;174.870;2023-04-03T13:05:08;2.10;;;2.10;;
19643;SDS011;9970;-36.854;174.870;2023-04-03T13:07:42;1.93;;;1.93;;
19643;SDS011;9970;-36.854;174.870;2023-04-03T13:10:16;1.80;;;1.80;;
19643;SDS011;9970;-36.854;174.870;2023-04-03T13:12:53;1.80;;;1.80;;
19643;SDS011;9970;-36.854;174.870;2023-04-03T13:15:41;1.90;;;1.90;;
19643;SDS011;9970;-36.854;174.870;2023-04-03T13:18:03;1.80;;;1.80;;
19643;SDS011;9970;-36.854;174.870;2023-04-03T13:20:39;1.80;;;1.80;;
19643;SDS011;9970;-36.854;174.870;2023-04-03T13:23:12;2.10;;;2.10;;
19643;SDS011;9970;-36.854;174.870;2023-04-03T13:25:47;2.00;;;2.00;;
19643;SDS011;9970;-36.854;174.870;2023-04-03T13:28:21;1.90;;;1.90;;
19643;SDS011;9970;-36.854;174.870;2023-04-03T13:34:09;2.00;;;2.00;;
19643;SDS011;9970;-36.854;174.870;2023-04-03T13:37:00;2.17;;;2.17;;
19643;SDS011;9970;-36.854;174.870;2023-04-03T13:39:24;2.00;;;2.00;;
19643;SDS011;9970;-36.854;174.870;2023-04-03T13:41:59;1.90;;;1.90;;
19643;SDS011;9970;-36.854;174.870;2023-04-03T13:44:35;1.90;;;1.90;;
19643;SDS011;9970;-36.854;174.870;2023-04-03T13:50:04;1.80;;;1.80;;
19643;SDS011;9970;-36.854;174.870;2023-04-03T13:52:38;2.00;;;2.00;;
19643;SDS011;9970;-36.854;174.870;2023-04-03T14:00:49;1.90;;;1.90;;
19643;SDS011;9970;-36.854;174.870;2023-04-03T14:06:01;1.80;;;1.80;;
19643;SDS011;9970;-36.854;174.870;2023-04-03T14:08:38;2.00;;;2.00;;
19643;SDS011;9970;-36.854;174.870;2023-04-03T14:11:30;1.90;;;1.90;;
19643;SDS011;9970;-36.854;174.870;2023-04-03T14:13:52;1.80;;;1.80;;
19643;SDS011;9970;-36.854;174.870;2023-04-03T14:16:28;1.70;;;1.70;;
19643;SDS011;9970;-36.854;174.870;2023-04-03T14:19:02;1.80;;;1.80;;
19643;SDS011;9970;-36.854;174.870;2023-04-03T14:21:36;1.70;;;1.70;;
19643;SDS011;9970;-36.854;174.870;2023-04-03T14:24:09;1.80;;;1.80;;
19643;SDS011;9970;-36.854;174.870;2023-04-03T14:26:42;1.70;;;1.70;;
19643;SDS011;9970;-36.854;174.870;2023-04-03T14:29:16;1.70;;;1.70;;
19643;SDS011;9970;-36.854;174.870;2023-04-03T14:31:49;1.63;;;1.63;;
19643;SDS011;9970;-36.854;174.870;2023-04-03T14:34:23;1.60;;;1.60;;
19643;SDS011;9970;-36.854;174.870;2023-04-03T14:36:57;1.63;;;1.63;;
19643;SDS011;9970;-36.854;174.870;2023-04-03T14:39:35;1.70;;;1.70;;
19643;SDS011;9970;-36.854;174.870;2023-04-03T14:42:04;1.70;;;1.70;;
19643;SDS011;9970;-36.854;174.870;2023-04-03T14:44:41;1.80;;;1.80;;
19643;SDS011;9970;-36.854;174.870;2023-04-03T14:47:19;1.70;;;1.70;;
19643;SDS011;9970;-36.854;174.870;2023-04-03T14:49:54;1.73;;;1.73;;
19643;SDS011;9970;-36.854;174.870;2023-04-03T14:52:33;1.70;;;1.70;;
19643;SDS011;9970;-36.854;174.870;2023-04-03T14:55:03;1.70;;;1.70;;
19643;SDS011;9970;-36.854;174.870;2023-04-03T14:57:37;1.80;;;1.80;;
19643;SDS011;9970;-36.854;174.870;2023-04-03T15:00:15;1.70;;;1.70;;
19643;SDS011;9970;-36.854;174.870;2023-04-03T15:02:48;1.70;;;1.70;;
19643;SDS011;9970;-36.854;174.870;2023-04-03T15:05:22;1.63;;;1.63;;
19643;SDS011;9970;-36.854;174.870;2023-04-03T15:07:57;1.70;;;1.70;;
19643;SDS011;9970;-36.854;174.870;2023-04-03T15:10:30;1.70;;;1.70;;
19643;SDS011;9970;-36.854;174.870;2023-04-03T15:13:03;1.60;;;1.60;;
19643;SDS011;9970;-36.854;174.870;2023-04-03T15:15:36;1.70;;;1.70;;
19643;SDS011;9970;-36.854;174.870;2023-04-03T15:18:15;1.60;;;1.60;;
19643;SDS011;9970;-36.854;174.870;2023-04-03T15:20:44;1.70;;;1.70;;
19643;SDS011;9970;-36.854;174.870;2023-04-03T15:23:17;1.60;;;1.60;;
19643;SDS011;9970;-36.854;174.870;2023-04-03T15:25:51;1.60;;;1.60;;
19643;SDS011;9970;-36.854;174.870;2023-04-03T15:28:33;1.60;;;1.60;;
19643;SDS011;9970;-36.854;174.870;2023-04-03T15:31:06;1.50;;;1.50;;
19643;SDS011;9970;-36.854;174.870;2023-04-03T15:33:40;1.60;;;1.60;;
19643;SDS011;9970;-36.854;174.870;2023-04-03T15:36:15;1.50;;;1.50;;
19643;SDS011;9970;-36.854;174.870;2023-04-03T15:38:49;1.50;;;1.50;;
19643;SDS011;9970;-36.854;174.870;2023-04-03T15:41:23;1.60;;;1.60;;
19643;SDS011;9970;-36.854;174.870;2023-04-03T15:43:56;1.60;;;1.60;;
19643;SDS011;9970;-36.854;174.870;2023-04-03T15:46:29;1.60;;;1.60;;
19643;SDS011;9970;-36.854;174.870;2023-04-03T15:49:03;1.57;;;1.57;;
19643;SDS011;9970;-36.854;174.870;2023-04-03T15:51:36;1.50;;;1.50;;
19643;SDS011;9970;-36.854;174.870;2023-04-03T15:54:09;1.50;;;1.50;;
19643;SDS011;9970;-36.854;174.870;2023-04-03T15:56:42;1.60;;;1.60;;
19643;SDS011;9970;-36.854;174.870;2023-04-03T15:59:16;1.70;;;1.70;;
19643;SDS011;9970;-36.854;174.870;2023-04-03T16:01:49;1.60;;;1.60;;
19643;SDS011;9970;-36.854;174.870;2023-04-03T16:04:23;1.50;;;1.50;;
19643;SDS011;9970;-36.854;174.870;2023-04-03T16:06:56;1.60;;;1.60;;
19643;SDS011;9970;-36.854;174.870;2023-04-03T16:09:31;1.60;;;1.60;;
19643;SDS011;9970;-36.854;174.870;2023-04-03T16:12:05;1.60;;;1.60;;
19643;SDS011;9970;-36.854;174.870;2023-04-03T16:14:38;1.60;;;1.60;;
19643;SDS011;9970;-36.854;174.870;2023-04-03T16:17:11;1.70;;;1.70;;
19643;SDS011;9970;-36.854;174.870;2023-04-03T16:19:44;1.60;;;1.60;;
19643;SDS011;9970;-36.854;174.870;2023-04-03T16:22:17;1.70;;;1.70;;
19643;SDS011;9970;-36.854;174.870;2023-04-03T16:24:50;1.70;;;1.70;;
19643;SDS011;9970;-36.854;174.870;2023-04-03T16:27:25;1.60;;;1.60;;
19643;SDS011;9970;-36.854;174.870;2023-04-03T16:30:00;1.50;;;1.50;;
19643;SDS011;9970;-36.854;174.870;2023-04-03T16:32:37;1.50;;;1.50;;
19643;SDS011;9970;-36.854;174.870;2023-04-03T16:35:11;1.60;;;1.60;;